createdAt,value
2018-01-01T00:02:15.529Z,11.26
2018-01-01T00:04:42.976Z,11.26
2018-01-01T00:07:10.438Z,11.27
2018-01-01T00:09:37.908Z,11.31
2018-01-01T00:12:05.332Z,11.33
2018-01-01T00:14:32.774Z,11.33
2018-01-01T00:17:00.203Z,11.33
2018-01-01T00:19:27.618Z,11.36
2018-01-01T00:21:56.197Z,11.37
2018-01-01T00:24:23.676Z,11.36
2018-01-01T00:26:51.219Z,11.35
2018-01-01T00:29:18.630Z,11.31
2018-01-01T00:31:46.047Z,11.31
2018-01-01T00:34:13.499Z,11.32
2018-01-01T00:36:40.916Z,11.32
2018-01-01T00:39:08.327Z,11.31
2018-01-01T00:41:35.756Z,11.29
2018-01-01T00:44:03.230Z,11.26
2018-01-01T00:46:30.683Z,11.29
2018-01-01T00:48:58.135Z,11.34
2018-01-01T00:51:25.542Z,11.33
2018-01-01T00:53:52.959Z,11.28
2018-01-01T00:56:20.399Z,11.29
2018-01-01T00:58:47.810Z,11.21
2018-01-01T01:01:15.231Z,11.13
2018-01-01T01:03:42.680Z,11.06
2018-01-01T01:06:10.091Z,11.05
2018-01-01T01:08:37.502Z,11.02
2018-01-01T01:11:04.930Z,10.99
2018-01-01T01:13:32.344Z,10.95
2018-01-01T01:15:59.795Z,10.93
2018-01-01T01:18:27.211Z,10.89
2018-01-01T01:20:54.627Z,10.87
2018-01-01T01:23:22.064Z,10.86
2018-01-01T01:25:49.470Z,10.85
2018-01-01T01:28:16.939Z,10.83
2018-01-01T01:30:44.366Z,10.79
2018-01-01T01:33:11.782Z,10.73
2018-01-01T01:35:39.299Z,10.70
2018-01-01T01:38:06.784Z,10.72
2018-01-01T01:40:34.198Z,10.71
2018-01-01T01:43:01.609Z,10.70
2018-01-01T01:45:29.063Z,10.70
2018-01-01T01:47:56.502Z,10.73
2018-01-01T01:50:23.932Z,10.74
2018-01-01T01:52:52.195Z,10.78
2018-01-01T01:55:19.611Z,10.81
2018-01-01T01:57:47.039Z,10.82
2018-01-01T02:00:14.507Z,10.83
2018-01-01T02:02:41.944Z,10.84
2018-01-01T02:05:09.400Z,10.87
2018-01-01T02:07:36.878Z,10.87
2018-01-01T02:10:04.299Z,10.87
2018-01-01T02:12:31.751Z,10.83
2018-01-01T02:14:59.183Z,10.81
2018-01-01T02:17:26.594Z,10.79
2018-01-01T02:19:54.036Z,10.78
2018-01-01T02:22:21.454Z,10.79
2018-01-01T02:24:48.967Z,10.80
2018-01-01T02:27:16.516Z,10.81
2018-01-01T02:29:43.930Z,10.85
2018-01-01T02:32:23.241Z,10.85
2018-01-01T02:34:50.666Z,10.85
2018-01-01T02:37:18.110Z,10.86
2018-01-01T02:39:45.514Z,10.89
2018-01-01T02:42:12.923Z,10.91
2018-01-01T02:44:40.336Z,10.90
2018-01-01T02:47:07.767Z,10.89
2018-01-01T02:49:35.309Z,10.89
2018-01-01T02:52:02.712Z,10.89
2018-01-01T02:54:30.142Z,10.90
2018-01-01T02:56:57.612Z,10.88
2018-01-01T02:59:24.978Z,10.87
2018-01-01T03:01:52.504Z,10.86
2018-01-01T03:04:19.919Z,10.85
2018-01-01T03:06:47.340Z,10.91
2018-01-01T03:09:14.867Z,10.96
2018-01-01T03:11:42.323Z,10.97
2018-01-01T03:14:09.734Z,11.01
2018-01-01T03:16:37.244Z,11.01
2018-01-01T03:19:04.692Z,11.00
2018-01-01T03:21:32.143Z,10.98
2018-01-01T03:23:59.576Z,10.99
2018-01-01T03:26:26.978Z,10.99
2018-01-01T03:28:54.397Z,10.97
2018-01-01T03:31:21.818Z,10.89
2018-01-01T03:33:49.332Z,10.84
2018-01-01T03:36:16.745Z,10.80
2018-01-01T03:38:44.246Z,10.78
2018-01-01T03:41:11.706Z,10.75
2018-01-01T03:43:39.119Z,10.74
2018-01-01T03:46:06.546Z,10.69
2018-01-01T03:48:33.972Z,10.61
2018-01-01T03:51:01.427Z,10.54
2018-01-01T03:53:28.876Z,10.48
2018-01-01T03:55:56.350Z,10.49
2018-01-01T03:58:23.812Z,10.42
2018-01-01T04:00:51.224Z,10.35
2018-01-01T04:03:18.658Z,10.29
2018-01-01T04:05:46.177Z,10.25
2018-01-01T04:08:13.592Z,10.22
2018-01-01T04:10:41.082Z,10.22
2018-01-01T04:13:08.496Z,10.22
2018-01-01T04:15:36.104Z,10.20
2018-01-01T04:18:03.507Z,10.19
2018-01-01T04:20:30.911Z,10.21
2018-01-01T04:22:58.342Z,10.19
2018-01-01T04:25:25.750Z,10.17
2018-01-01T04:27:53.168Z,10.13
2018-01-01T04:30:20.618Z,10.12
2018-01-01T04:32:48.034Z,10.12
2018-01-01T04:35:15.461Z,10.13
2018-01-01T04:37:43.002Z,10.13
2018-01-01T04:40:10.458Z,10.11
2018-01-01T04:42:37.889Z,10.07
2018-01-01T04:45:05.378Z,10.05
2018-01-01T04:47:32.783Z,10.03
2018-01-01T04:50:00.176Z,9.98
2018-01-01T04:52:27.608Z,9.92
2018-01-01T04:54:55.334Z,9.85
2018-01-01T04:57:22.772Z,9.80
2018-01-01T04:59:50.227Z,9.74
2018-01-01T05:02:17.628Z,9.71
2018-01-01T05:04:45.027Z,9.70
2018-01-01T05:07:12.446Z,9.71
2018-01-01T05:09:39.934Z,9.71
2018-01-01T05:12:07.415Z,9.69
2018-01-01T05:14:34.836Z,9.70
2018-01-01T05:17:02.240Z,9.69
2018-01-01T05:19:29.634Z,9.70
2018-01-01T05:21:57.063Z,9.67
2018-01-01T05:24:24.465Z,9.66
2018-01-01T05:26:51.865Z,9.62
2018-01-01T05:29:19.279Z,9.59
2018-01-01T05:31:46.675Z,9.58
2018-01-01T05:34:14.097Z,9.57
2018-01-01T05:36:41.493Z,9.55
2018-01-01T05:39:08.898Z,9.57
2018-01-01T05:41:36.334Z,9.59
2018-01-01T05:44:03.731Z,9.60
2018-01-01T05:46:31.140Z,9.60
2018-01-01T05:48:58.562Z,9.60
2018-01-01T05:51:25.966Z,9.62
2018-01-01T05:53:53.363Z,9.60
2018-01-01T05:56:20.810Z,9.58
2018-01-01T05:58:48.270Z,9.56
2018-01-01T06:01:15.669Z,9.58
2018-01-01T06:03:43.079Z,9.57
2018-01-01T06:06:10.479Z,9.56
2018-01-01T06:08:37.914Z,9.57
2018-01-01T06:11:05.322Z,9.54
2018-01-01T06:13:32.721Z,9.51
2018-01-01T06:16:00.142Z,9.44
2018-01-01T06:18:27.538Z,9.43
2018-01-01T06:20:54.944Z,9.43
2018-01-01T06:23:22.366Z,9.46
2018-01-01T06:25:49.788Z,9.52
2018-01-01T06:28:17.246Z,9.57
2018-01-01T06:30:44.691Z,9.62
2018-01-01T06:33:12.098Z,9.62
2018-01-01T06:35:39.511Z,9.64
2018-01-01T06:38:06.953Z,9.64
2018-01-01T06:40:34.346Z,9.64
2018-01-01T06:43:01.788Z,9.64
2018-01-01T06:45:29.220Z,9.64
2018-01-01T06:47:56.613Z,9.65
2018-01-01T06:50:24.025Z,9.63
2018-01-01T06:52:51.483Z,9.67
2018-01-01T06:55:18.883Z,9.67
2018-01-01T06:57:46.286Z,9.65
2018-01-01T07:00:13.722Z,9.61
2018-01-01T07:02:41.236Z,9.54
2018-01-01T07:05:08.636Z,9.52
2018-01-01T07:07:36.143Z,9.46
2018-01-01T07:10:03.543Z,9.51
2018-01-01T07:12:30.947Z,9.50
2018-01-01T07:14:58.374Z,9.54
2018-01-01T07:17:25.871Z,9.52
2018-01-01T07:19:53.278Z,9.45
2018-01-01T07:22:20.718Z,9.37
2018-01-01T07:24:48.125Z,9.30
2018-01-01T07:27:15.555Z,9.23
2018-01-01T07:29:42.975Z,9.20
2018-01-01T07:32:10.366Z,9.21
2018-01-01T07:34:37.768Z,9.19
2018-01-01T07:37:05.222Z,9.19
2018-01-01T07:39:32.618Z,9.15
2018-01-01T07:42:00.036Z,9.11
2018-01-01T07:44:27.459Z,9.08
2018-01-01T07:46:54.855Z,9.02
2018-01-01T07:49:22.263Z,8.98
2018-01-01T07:51:49.755Z,8.95
2018-01-01T07:54:17.155Z,8.93
2018-01-01T07:56:44.555Z,8.95
2018-01-01T07:59:11.986Z,8.97
2018-01-01T08:01:39.503Z,8.93
2018-01-01T08:04:06.918Z,8.86
2018-01-01T08:06:34.358Z,8.82
2018-01-01T08:09:01.771Z,8.79
2018-01-01T08:11:29.207Z,8.80
2018-01-01T08:13:56.626Z,8.78
2018-01-01T08:16:24.031Z,8.76
2018-01-01T08:18:51.437Z,8.70
2018-01-01T08:21:18.960Z,8.64
2018-01-01T08:23:46.395Z,8.63
2018-01-01T08:26:13.795Z,8.65
2018-01-01T08:28:41.318Z,8.68
2018-01-01T08:31:08.706Z,8.64
2018-01-01T08:33:36.106Z,8.60
2018-01-01T08:36:03.565Z,8.57
2018-01-01T08:38:31.030Z,8.59
2018-01-01T08:40:58.436Z,8.61
2018-01-01T08:43:25.935Z,8.62
2018-01-01T08:45:53.351Z,8.68
2018-01-01T08:48:20.748Z,8.74
2018-01-01T08:50:48.178Z,8.77
2018-01-01T08:53:15.575Z,8.83
2018-01-01T08:55:42.979Z,8.84
2018-01-01T08:58:10.399Z,8.85
2018-01-01T09:00:37.799Z,8.87
2018-01-01T09:03:05.199Z,8.98
2018-01-01T09:05:32.628Z,9.06
2018-01-01T09:08:00.022Z,9.11
2018-01-01T09:10:27.424Z,9.16
2018-01-01T09:12:54.850Z,9.13
2018-01-01T09:15:22.250Z,9.19
2018-01-01T09:17:49.731Z,9.24
2018-01-01T09:20:17.155Z,9.37
2018-01-01T09:22:44.643Z,9.40
2018-01-01T09:25:12.061Z,9.49
2018-01-01T09:27:39.555Z,9.76
2018-01-01T09:30:06.958Z,10.11
2018-01-01T09:32:34.358Z,10.45
2018-01-01T09:35:01.795Z,10.56
2018-01-01T09:37:29.200Z,10.13
2018-01-01T09:39:56.600Z,9.89
2018-01-01T09:42:24.090Z,9.81
2018-01-01T09:44:51.510Z,9.85
2018-01-01T09:47:18.918Z,9.85
2018-01-01T09:49:46.323Z,9.78
2018-01-01T09:52:13.732Z,9.79
2018-01-01T09:54:41.163Z,9.81
2018-01-01T09:57:08.570Z,9.80
2018-01-01T09:59:36.095Z,9.79
2018-01-01T10:02:03.505Z,9.71
2018-01-01T10:04:31.003Z,9.69
2018-01-01T10:06:58.516Z,9.70
2018-01-01T10:09:25.908Z,9.64
2018-01-01T10:11:53.335Z,9.64
2018-01-01T10:14:20.826Z,9.61
2018-01-01T10:16:48.290Z,9.64
2018-01-01T10:19:15.711Z,9.78
2018-01-01T10:21:43.112Z,9.86
2018-01-01T10:24:10.514Z,9.86
2018-01-01T10:26:38.007Z,9.87
2018-01-01T10:29:05.402Z,9.82
2018-01-01T10:31:32.918Z,9.79
2018-01-01T10:34:00.388Z,9.73
2018-01-01T10:36:27.782Z,9.69
2018-01-01T10:38:55.254Z,9.69
2018-01-01T10:41:22.699Z,9.72
2018-01-01T10:43:50.104Z,9.69
2018-01-01T10:46:17.507Z,9.68
2018-01-01T10:48:44.924Z,9.56
2018-01-01T10:51:12.319Z,9.48
2018-01-01T10:53:39.718Z,9.43
2018-01-01T10:56:07.195Z,9.44
2018-01-01T10:58:34.651Z,9.42
2018-01-01T11:01:02.079Z,9.36
2018-01-01T11:03:29.490Z,9.38
2018-01-01T11:05:56.915Z,9.42
2018-01-01T11:08:24.382Z,9.45
2018-01-01T11:10:51.793Z,9.48
2018-01-01T11:13:19.191Z,9.56
2018-01-01T11:15:46.643Z,9.63
2018-01-01T11:18:14.103Z,9.66
2018-01-01T11:20:41.510Z,9.63
2018-01-01T11:23:08.942Z,9.52
2018-01-01T11:25:36.358Z,9.54
2018-01-01T11:28:03.828Z,9.51
2018-01-01T11:30:31.246Z,9.65
2018-01-01T11:32:58.650Z,9.69
2018-01-01T11:35:26.070Z,9.77
2018-01-01T11:37:53.511Z,9.82
2018-01-01T11:40:20.931Z,9.82
2018-01-01T11:42:48.340Z,9.89
2018-01-01T11:45:15.811Z,9.99
2018-01-01T11:47:43.215Z,10.13
2018-01-01T11:50:10.620Z,10.11
2018-01-01T11:52:38.038Z,10.13
2018-01-01T11:55:05.458Z,10.08
2018-01-01T11:57:32.855Z,10.01
2018-01-01T12:00:00.279Z,10.03
2018-01-01T12:02:27.727Z,10.10
2018-01-01T12:04:55.103Z,10.10
2018-01-01T12:07:22.547Z,10.21
2018-01-01T12:09:49.963Z,10.17
2018-01-01T12:12:19.612Z,10.01
2018-01-01T12:14:44.815Z,9.99
2018-01-01T12:17:12.254Z,9.93
2018-01-01T12:19:39.662Z,9.90
2018-01-01T12:22:07.085Z,9.91
2018-01-01T12:24:34.794Z,9.81
2018-01-01T12:27:02.216Z,9.80
2018-01-01T12:29:29.626Z,9.79
2018-01-01T12:31:57.095Z,9.80
2018-01-01T12:34:24.543Z,9.80
2018-01-01T12:36:52.008Z,9.74
2018-01-01T12:39:19.462Z,9.74
2018-01-01T12:41:46.891Z,9.73
2018-01-01T12:44:14.378Z,9.77
2018-01-01T12:46:41.839Z,9.81
2018-01-01T12:49:09.285Z,9.89
2018-01-01T12:51:36.699Z,9.93
2018-01-01T12:54:04.108Z,9.85
2018-01-01T12:56:31.519Z,9.76
2018-01-01T12:58:58.924Z,9.65
2018-01-01T13:01:26.465Z,9.54
2018-01-01T13:03:53.861Z,9.50
2018-01-01T13:06:21.264Z,9.49
2018-01-01T13:08:48.752Z,9.46
2018-01-01T13:11:16.193Z,9.53
2018-01-01T13:13:43.592Z,9.61
2018-01-01T13:16:11.015Z,9.65
2018-01-01T13:18:38.426Z,9.66
2018-01-01T13:21:05.834Z,9.50
2018-01-01T13:23:33.252Z,9.43
2018-01-01T13:26:00.660Z,9.35
2018-01-01T13:28:28.201Z,9.24
2018-01-01T13:30:55.664Z,9.16
2018-01-01T13:33:23.064Z,9.08
2018-01-01T13:35:50.467Z,8.99
2018-01-01T13:38:17.904Z,8.92
2018-01-01T13:40:45.298Z,8.85
2018-01-01T13:43:12.745Z,8.77
2018-01-01T13:45:40.151Z,8.69
2018-01-01T13:48:07.923Z,8.65
2018-01-01T13:50:35.358Z,8.61
2018-01-01T13:53:02.763Z,8.62
2018-01-01T13:55:30.165Z,8.69
2018-01-01T13:57:57.599Z,8.73
2018-01-01T14:00:25.000Z,8.80
2018-01-01T14:02:52.395Z,8.80
2018-01-01T14:05:19.820Z,8.77
2018-01-01T14:07:47.321Z,8.78
2018-01-01T14:10:14.711Z,8.81
2018-01-01T14:12:42.138Z,8.81
2018-01-01T14:15:09.542Z,8.83
2018-01-01T14:17:36.939Z,8.83
2018-01-01T14:20:04.371Z,8.78
2018-01-01T14:22:31.775Z,8.74
2018-01-01T14:24:59.188Z,8.72
2018-01-01T14:27:26.614Z,8.74
2018-01-01T14:29:54.022Z,8.72
2018-01-01T14:32:21.425Z,8.69
2018-01-01T14:34:48.875Z,8.67
2018-01-01T14:37:16.275Z,8.64
2018-01-01T14:39:43.685Z,8.64
2018-01-01T14:42:11.189Z,8.64
2018-01-01T14:44:38.596Z,8.63
2018-01-01T14:47:06.007Z,8.62
2018-01-01T14:49:33.436Z,8.53
2018-01-01T14:52:00.842Z,8.47
2018-01-01T14:54:28.265Z,8.39
2018-01-01T14:56:55.691Z,8.31
2018-01-01T14:59:23.099Z,8.23
2018-01-01T15:01:50.533Z,8.16
2018-01-01T15:04:18.193Z,8.11
2018-01-01T15:06:45.589Z,8.13
2018-01-01T15:09:12.978Z,8.20
2018-01-01T15:11:40.469Z,8.26
2018-01-01T15:14:07.888Z,8.31
2018-01-01T15:16:35.376Z,8.34
2018-01-01T15:19:02.842Z,8.37
2018-01-01T15:21:30.243Z,8.37
2018-01-01T15:23:57.701Z,8.36
2018-01-01T15:26:25.075Z,8.38
2018-01-01T15:28:52.471Z,8.39
2018-01-01T15:31:19.902Z,8.39
2018-01-01T15:33:47.307Z,8.40
2018-01-01T15:36:14.715Z,8.39
2018-01-01T15:38:42.192Z,8.37
2018-01-01T15:41:09.611Z,8.36
2018-01-01T15:43:37.065Z,8.36
2018-01-01T15:46:04.478Z,8.35
2018-01-01T15:48:33.319Z,8.36
2018-01-01T15:51:01.004Z,8.34
2018-01-01T15:53:28.394Z,8.32
2018-01-01T15:55:55.786Z,8.32
2018-01-01T15:58:23.195Z,8.32
2018-01-01T16:00:50.647Z,8.32
2018-01-01T16:03:18.051Z,8.31
2018-01-01T16:05:45.559Z,8.32
2018-01-01T16:08:12.974Z,8.30
2018-01-01T16:10:40.467Z,8.30
2018-01-01T16:13:07.875Z,8.28
2018-01-01T16:15:35.303Z,8.26
2018-01-01T16:18:02.702Z,8.22
2018-01-01T16:20:30.106Z,8.23
2018-01-01T16:22:57.550Z,8.23
2018-01-01T16:25:24.951Z,8.22
2018-01-01T16:27:52.351Z,8.23
2018-01-01T16:30:19.934Z,8.25
2018-01-01T16:32:47.345Z,8.24
2018-01-01T16:35:14.747Z,8.19
2018-01-01T16:37:42.172Z,8.14
2018-01-01T16:40:09.575Z,8.11
2018-01-01T16:42:37.001Z,8.06
2018-01-01T16:45:04.422Z,8.00
2018-01-01T16:47:31.918Z,8.03
2018-01-01T16:49:59.367Z,8.01
2018-01-01T16:52:26.802Z,7.98
2018-01-01T16:54:54.358Z,7.95
2018-01-01T16:57:21.751Z,7.91
2018-01-01T16:59:49.178Z,7.88
2018-01-01T17:02:16.649Z,7.89
2018-01-01T17:04:44.040Z,7.84
2018-01-01T17:07:11.477Z,7.76
2018-01-01T17:09:38.879Z,7.70
2018-01-01T17:12:06.287Z,7.64
2018-01-01T17:14:33.699Z,7.60
2018-01-01T17:17:01.095Z,7.56
2018-01-01T17:19:28.545Z,7.56
2018-01-01T17:21:55.942Z,7.57
2018-01-01T17:24:23.343Z,7.58
2018-01-01T17:26:50.766Z,7.60
2018-01-01T17:29:18.166Z,7.54
2018-01-01T17:31:45.585Z,7.47
2018-01-01T17:34:13.023Z,7.40
2018-01-01T17:36:40.435Z,7.30
2018-01-01T17:39:07.830Z,7.23
2018-01-01T17:41:35.264Z,7.17
2018-01-01T17:44:02.676Z,7.10
2018-01-01T17:46:30.077Z,7.04
2018-01-01T17:48:57.567Z,6.97
2018-01-01T17:51:24.974Z,6.92
2018-01-01T17:53:52.378Z,6.87
2018-01-01T17:56:19.790Z,6.81
2018-01-01T17:58:47.190Z,6.77
2018-01-01T18:01:14.651Z,6.74
2018-01-01T18:03:42.070Z,6.71
2018-01-01T18:06:09.527Z,6.68
2018-01-01T18:08:36.950Z,6.64
2018-01-01T18:11:04.358Z,6.57
2018-01-01T18:13:31.795Z,6.51
2018-01-01T18:15:59.255Z,6.45
2018-01-01T18:18:26.705Z,6.40
2018-01-01T18:20:54.115Z,6.36
2018-01-01T18:23:21.510Z,6.39
2018-01-01T18:25:49.226Z,6.39
2018-01-01T18:28:16.643Z,6.34
2018-01-01T18:30:44.056Z,6.30
2018-01-01T18:33:11.549Z,6.25
2018-01-01T18:35:39.314Z,6.19
2018-01-01T18:38:06.711Z,6.08
2018-01-01T18:40:34.136Z,5.98
2018-01-01T18:43:01.596Z,5.97
2018-01-01T18:45:28.998Z,5.96
2018-01-01T18:47:56.447Z,5.94
2018-01-01T18:50:23.953Z,5.93
2018-01-01T18:52:51.414Z,5.92
2018-01-01T18:55:18.837Z,5.88
2018-01-01T18:57:46.332Z,5.87
2018-01-01T19:00:13.860Z,5.81
2018-01-01T19:02:41.272Z,5.77
2018-01-01T19:05:08.679Z,5.72
2018-01-01T19:07:36.142Z,5.71
2018-01-01T19:10:03.617Z,5.66
2018-01-01T19:12:31.083Z,5.66
2018-01-01T19:14:58.529Z,5.67
2018-01-01T19:17:25.933Z,5.65
2018-01-01T19:19:53.354Z,5.59
2018-01-01T19:22:20.797Z,5.58
2018-01-01T19:24:48.219Z,5.55
2018-01-01T19:27:15.630Z,5.51
2018-01-01T19:29:43.067Z,5.51
2018-01-01T19:32:10.481Z,5.49
2018-01-01T19:34:37.893Z,5.45
2018-01-01T19:37:05.344Z,5.44
2018-01-01T19:39:33.105Z,5.39
2018-01-01T19:42:00.542Z,5.36
2018-01-01T19:44:28.031Z,5.33
2018-01-01T19:46:55.888Z,5.33
2018-01-01T19:49:23.340Z,5.31
2018-01-01T19:51:50.775Z,5.29
2018-01-01T19:54:18.362Z,5.28
2018-01-01T19:56:45.770Z,5.30
2018-01-01T19:59:13.282Z,5.25
2018-01-01T20:01:40.683Z,5.25
2018-01-01T20:04:08.091Z,5.26
2018-01-01T20:06:35.567Z,5.26
2018-01-01T20:09:02.983Z,5.24
2018-01-01T20:11:30.475Z,5.21
2018-01-01T20:13:57.903Z,5.16
2018-01-01T20:16:25.307Z,5.13
2018-01-01T20:18:52.714Z,5.10
2018-01-01T20:21:20.142Z,5.08
2018-01-01T20:23:47.543Z,5.03
2018-01-01T20:26:14.938Z,4.97
2018-01-01T20:28:42.369Z,4.92
2018-01-01T20:31:09.775Z,4.90
2018-01-01T20:33:37.175Z,4.91
2018-01-01T20:36:04.610Z,4.87
2018-01-01T20:38:32.097Z,4.82
2018-01-01T20:40:59.560Z,4.74
2018-01-01T20:43:26.975Z,4.73
2018-01-01T20:45:54.477Z,4.73
2018-01-01T20:48:21.866Z,4.71
2018-01-01T20:50:49.291Z,4.70
2018-01-01T20:53:16.707Z,4.69
2018-01-01T20:55:44.195Z,4.74
2018-01-01T20:58:11.658Z,4.77
2018-01-01T21:00:39.076Z,4.78
2018-01-01T21:03:06.483Z,4.83
2018-01-01T21:05:33.900Z,4.88
2018-01-01T21:08:01.311Z,4.90
2018-01-01T21:10:28.832Z,4.91
2018-01-01T21:12:56.293Z,4.87
2018-01-01T21:15:23.690Z,4.83
2018-01-01T21:17:51.306Z,4.80
2018-01-01T21:20:18.718Z,4.79
2018-01-01T21:22:46.120Z,4.83
2018-01-01T21:25:13.544Z,4.86
2018-01-01T21:27:40.945Z,4.84
2018-01-01T21:30:08.344Z,4.85
2018-01-01T21:32:35.774Z,4.82
2018-01-01T21:35:03.195Z,4.82
2018-01-01T21:37:30.662Z,4.85
2018-01-01T21:39:58.086Z,4.87
2018-01-01T21:42:25.483Z,4.85
2018-01-01T21:44:52.897Z,4.84
2018-01-01T21:47:20.302Z,4.86
2018-01-01T21:49:47.708Z,4.83
2018-01-01T21:52:15.194Z,4.84
2018-01-01T21:54:42.594Z,4.84
2018-01-01T21:57:10.002Z,4.82
2018-01-01T21:59:37.429Z,4.83
2018-01-01T22:02:04.828Z,4.87
2018-01-01T22:04:32.235Z,4.91
2018-01-01T22:06:59.724Z,4.91
2018-01-01T22:09:27.110Z,4.90
2018-01-01T22:11:54.538Z,4.95
2018-01-01T22:14:22.007Z,5.01
2018-01-01T22:16:49.434Z,5.05
2018-01-01T22:19:16.843Z,5.08
2018-01-01T22:21:44.263Z,5.11
2018-01-01T22:24:11.666Z,5.13
2018-01-01T22:26:39.079Z,5.09
2018-01-01T22:29:06.528Z,5.11
2018-01-01T22:31:33.997Z,5.09
2018-01-01T22:34:01.395Z,5.07
2018-01-01T22:36:28.923Z,5.06
2018-01-01T22:38:56.322Z,5.07
2018-01-01T22:41:23.720Z,5.06
2018-01-01T22:43:51.151Z,5.04
2018-01-01T22:46:18.551Z,5.02
2018-01-01T22:48:46.020Z,5.07
2018-01-01T22:51:13.434Z,5.10
2018-01-01T22:53:40.843Z,5.10
2018-01-01T22:56:08.234Z,5.11
2018-01-01T22:58:35.659Z,5.09
2018-01-01T23:01:03.067Z,5.09
2018-01-01T23:03:30.471Z,5.11
2018-01-01T23:05:57.898Z,5.10
2018-01-01T23:08:25.303Z,5.09
2018-01-01T23:10:52.739Z,5.11
2018-01-01T23:13:20.154Z,5.11
2018-01-01T23:15:47.551Z,5.11
2018-01-01T23:18:14.990Z,5.06
2018-01-01T23:20:42.402Z,5.07
2018-01-01T23:23:09.798Z,5.07
2018-01-01T23:25:37.227Z,5.12
2018-01-01T23:28:04.618Z,5.14
2018-01-01T23:30:32.014Z,5.15
2018-01-01T23:32:59.540Z,5.18
2018-01-01T23:35:26.998Z,5.21
2018-01-01T23:37:54.411Z,5.21
2018-01-01T23:40:21.847Z,5.13
2018-01-01T23:42:49.246Z,5.09
2018-01-01T23:45:16.659Z,4.97
2018-01-01T23:47:44.095Z,4.89
2018-01-01T23:50:11.521Z,4.85
2018-01-01T23:52:38.915Z,4.89
2018-01-01T23:55:06.338Z,4.93
2018-01-01T23:57:33.796Z,4.96
